createdAt,value
2023-05-07T05:04:36.693Z,16.70
2023-05-07T05:09:40.724Z,16.70
2023-05-07T05:14:44.995Z,16.80
2023-05-07T05:19:50.855Z,16.80
2023-05-07T05:24:54.814Z,16.80
2023-05-07T05:29:58.890Z,16.80
2023-05-07T05:35:04.452Z,16.80
2023-05-07T05:40:09.488Z,16.90
2023-05-07T05:45:13.447Z,16.90
2023-05-07T05:50:18.792Z,16.90
2023-05-07T05:55:23.014Z,16.90
2023-05-07T06:00:27.698Z,17.00
2023-05-07T06:05:34.621Z,17.10
2023-05-07T06:10:38.780Z,17.20
2023-05-07T06:15:43.122Z,17.30
2023-05-07T06:20:48.405Z,17.30
2023-05-07T06:25:54.076Z,17.50
2023-05-07T06:31:12.484Z,17.50
2023-05-07T06:36:17.854Z,17.70
2023-05-07T06:41:22.695Z,17.80
2023-05-07T06:46:26.583Z,17.90
2023-05-07T06:51:31.909Z,18.10
2023-05-07T06:56:38.415Z,18.00
2023-05-07T07:01:42.520Z,18.10
2023-05-07T07:06:48.170Z,18.20
2023-05-07T07:11:51.890Z,18.20
2023-05-07T07:22:02.163Z,18.20
2023-05-07T07:27:06.400Z,18.40
2023-05-07T07:32:10.682Z,18.50
2023-05-07T07:37:15.886Z,18.70
2023-05-07T07:42:19.564Z,19.30
2023-05-07T07:47:23.325Z,19.00
2023-05-07T07:52:28.698Z,19.20
2023-05-07T07:57:32.847Z,19.30
2023-05-07T08:02:37.286Z,19.40
2023-05-07T08:07:42.417Z,19.60
2023-05-07T08:12:46.886Z,19.80
2023-05-07T08:22:56.478Z,19.80
2023-05-07T08:28:00.723Z,19.70
2023-05-07T08:33:04.555Z,19.60
2023-05-07T08:38:09.781Z,19.50
2023-05-07T08:43:15.590Z,19.40
2023-05-07T08:48:20.097Z,19.30
2023-05-07T08:53:25.809Z,19.20
2023-05-07T08:58:29.410Z,19.20
2023-05-07T09:03:33.594Z,19.10
2023-05-07T09:08:38.940Z,19.10
2023-05-07T09:13:42.928Z,19.10
2023-05-07T09:18:48.654Z,19.10
2023-05-07T09:23:55.492Z,19.10
2023-05-07T09:29:00.558Z,19.00
2023-05-07T09:39:11.580Z,18.90
2023-05-07T09:44:15.944Z,18.80
2023-05-07T09:49:26.674Z,18.70
2023-05-07T09:54:34.659Z,18.70
2023-05-07T09:59:40.246Z,18.80
2023-05-07T10:04:45.049Z,19.00
2023-05-07T10:09:52.431Z,19.50
2023-05-07T10:14:58.498Z,20.50
2023-05-07T10:20:04.396Z,20.90
2023-05-07T10:25:16.834Z,21.30
2023-05-07T10:30:31.709Z,21.80
2023-05-07T10:35:41.612Z,22.10
2023-05-07T10:40:47.947Z,22.40
2023-05-07T10:46:18.194Z,22.70
2023-05-07T10:51:24.083Z,23.30
2023-05-07T10:56:30.785Z,23.90
2023-05-07T11:01:53.369Z,24.40
2023-05-07T11:07:28.066Z,24.10
2023-05-07T11:12:56.065Z,24.10
2023-05-07T11:18:01.594Z,23.70
2023-05-07T11:23:06.451Z,23.30
2023-05-07T11:28:12.377Z,23.00
2023-05-07T11:33:20.753Z,22.80
2023-05-07T11:38:25.484Z,22.70
2023-05-07T11:43:30.726Z,22.70
2023-05-07T11:53:40.001Z,23.10
2023-05-07T11:58:46.117Z,23.10
2023-05-07T12:03:49.808Z,23.10
2023-05-07T12:08:53.516Z,22.90
2023-05-07T12:13:59.921Z,22.40
2023-05-07T12:19:04.446Z,22.40
2023-05-07T12:24:08.137Z,22.10
2023-05-07T12:29:13.068Z,22.10
2023-05-07T12:34:17.359Z,22.00
2023-05-07T12:39:20.746Z,22.10
2023-05-07T12:44:26.482Z,23.80
2023-05-07T12:49:30.119Z,23.70
2023-05-07T12:54:35.294Z,25.20
2023-05-07T12:59:43.469Z,25.50
2023-05-07T13:14:57.741Z,25.00
2023-05-07T13:20:01.302Z,24.90
2023-05-07T13:25:06.770Z,24.80
2023-05-07T13:30:11.680Z,24.80
2023-05-07T13:35:15.269Z,24.70
2023-05-07T13:40:18.963Z,24.40
2023-05-07T13:45:26.815Z,24.30
2023-05-07T13:50:31.024Z,24.20
2023-05-07T14:00:40.078Z,24.60
2023-05-07T14:05:43.890Z,24.60
2023-05-07T14:10:47.721Z,24.60
2023-05-07T14:15:52.674Z,24.40
2023-05-07T14:31:07.292Z,24.30
2023-05-07T14:36:11.047Z,24.30
2023-05-07T14:41:14.646Z,24.20
2023-05-07T14:46:25.789Z,23.80
2023-05-07T14:51:29.738Z,23.80
2023-05-07T15:01:39.136Z,23.80
2023-05-07T15:06:42.882Z,23.90
2023-05-07T15:16:52.319Z,23.70
2023-05-07T15:32:05.385Z,23.20
2023-05-07T15:47:18.275Z,23.00
2023-05-07T15:52:22.048Z,23.10
2023-05-07T16:02:31.310Z,22.80
2023-05-07T16:07:35.092Z,22.80
2023-05-07T16:17:46.559Z,22.40
2023-05-07T16:27:54.969Z,22.30
2023-05-07T16:33:00.255Z,22.30
2023-05-07T16:48:21.057Z,21.80
2023-05-07T16:53:24.798Z,21.70
2023-05-07T17:03:33.767Z,21.40
2023-05-07T17:13:43.014Z,21.30
2023-05-07T17:18:47.943Z,21.10
2023-05-07T17:34:00.732Z,20.80
2023-05-07T17:39:05.373Z,20.70
2023-05-07T17:49:16.457Z,20.40
2023-05-07T17:59:25.206Z,20.40
2023-05-07T18:04:30.126Z,20.30
2023-05-07T18:14:37.514Z,20.10
2023-05-07T18:19:43.859Z,19.90
2023-05-07T18:24:47.534Z,19.80
2023-05-07T18:34:56.364Z,19.60
2023-05-07T18:40:02.946Z,19.60
2023-05-07T18:45:07.397Z,19.50
2023-05-07T18:50:13.871Z,19.50
2023-05-07T18:55:18.179Z,19.30
2023-05-07T19:00:21.977Z,19.30
2023-05-07T19:05:26.961Z,19.20
2023-05-07T19:10:30.553Z,19.10
2023-05-07T19:20:39.330Z,18.90
2023-05-07T19:25:42.935Z,18.80
2023-05-07T19:35:54.014Z,18.60
2023-05-07T19:40:57.853Z,18.20
2023-05-07T19:51:06.875Z,18.30
2023-05-07T19:56:11.774Z,18.20
2023-05-07T20:01:15.418Z,18.10
2023-05-07T20:06:20.603Z,18.00
2023-05-07T20:11:24.700Z,17.90
2023-05-07T20:21:33.822Z,17.70
2023-05-07T20:26:37.446Z,17.60
2023-05-07T20:31:41.225Z,17.50
2023-05-07T20:36:46.575Z,17.40
2023-05-07T20:41:50.177Z,17.30
2023-05-07T20:46:53.745Z,17.20
2023-05-07T20:51:58.686Z,17.10
2023-05-07T20:57:02.911Z,17.00
2023-05-07T21:02:06.599Z,16.90
2023-05-07T21:07:11.647Z,16.40
2023-05-07T21:17:19.090Z,16.60
2023-05-07T21:22:24.017Z,16.90
2023-05-07T21:27:28.815Z,16.60
2023-05-07T21:32:32.640Z,16.70
2023-05-07T21:37:37.598Z,16.70
2023-05-07T21:42:41.089Z,16.80
2023-05-07T21:47:44.609Z,16.70
2023-05-07T21:52:49.624Z,16.50
2023-05-07T21:58:04.140Z,16.50
2023-05-07T22:03:08.851Z,16.50
2023-05-07T22:08:13.771Z,16.50
2023-05-07T22:13:17.420Z,16.50
2023-05-07T22:23:26.325Z,16.40
2023-05-07T22:28:29.852Z,16.30
